sensor_id;sensor_type;location;lat;lon;timestamp;P1;durP1;ratioP1;P2;durP2;ratioP2
36799;SDS011;22752;51.960;5.886;2024-03-17T00:00:55;8.40;;;4.27;;
36799;SDS011;22752;51.960;5.886;2024-03-17T00:03:25;10.03;;;4.70;;
36799;SDS011;22752;51.960;5.886;2024-03-17T00:05:58;9.87;;;4.70;;
36799;SDS011;22752;51.960;5.886;2024-03-17T00:08:24;9.10;;;4.50;;
36799;SDS011;22752;51.960;5.886;2024-03-17T00:10:53;7.37;;;4.13;;
36799;SDS011;22752;51.960;5.886;2024-03-17T00:13:23;12.07;;;4.60;;
36799;SDS011;22752;51.960;5.886;2024-03-17T00:15:49;9.53;;;4.53;;
36799;SDS011;22752;51.960;5.886;2024-03-17T00:18:15;9.00;;;4.53;;
36799;SDS011;22752;51.960;5.886;2024-03-17T00:20:41;9.73;;;4.80;;
36799;SDS011;22752;51.960;5.886;2024-03-17T00:23:06;9.93;;;4.83;;
36799;SDS011;22752;51.960;5.886;2024-03-17T00:25:33;8.70;;;4.90;;
36799;SDS011;22752;51.960;5.886;2024-03-17T00:27:59;10.40;;;5.17;;
36799;SDS011;22752;51.960;5.886;2024-03-17T00:30:25;9.73;;;5.00;;
36799;SDS011;22752;51.960;5.886;2024-03-17T00:32:51;11.03;;;5.13;;
36799;SDS011;22752;51.960;5.886;2024-03-17T00:35:20;8.03;;;4.80;;
36799;SDS011;22752;51.960;5.886;2024-03-17T00:37:49;10.13;;;4.80;;
36799;SDS011;22752;51.960;5.886;2024-03-17T00:40:15;12.07;;;5.33;;
36799;SDS011;22752;51.960;5.886;2024-03-17T00:42:45;13.53;;;5.73;;
36799;SDS011;22752;51.960;5.886;2024-03-17T00:45:11;8.80;;;5.03;;
36799;SDS011;22752;51.960;5.886;2024-03-17T00:47:37;14.23;;;6.07;;
36799;SDS011;22752;51.960;5.886;2024-03-17T00:50:04;10.63;;;4.90;;
36799;SDS011;22752;51.960;5.886;2024-03-17T00:52:31;8.37;;;4.90;;
36799;SDS011;22752;51.960;5.886;2024-03-17T00:54:57;9.67;;;4.67;;
36799;SDS011;22752;51.960;5.886;2024-03-17T00:57:23;7.43;;;4.33;;
36799;SDS011;22752;51.960;5.886;2024-03-17T00:59:49;10.80;;;4.37;;
36799;SDS011;22752;51.960;5.886;2024-03-17T01:02:15;8.63;;;4.37;;
36799;SDS011;22752;51.960;5.886;2024-03-17T01:04:41;6.90;;;3.77;;
36799;SDS011;22752;51.960;5.886;2024-03-17T01:07:08;7.03;;;3.70;;
36799;SDS011;22752;51.960;5.886;2024-03-17T01:09:34;6.43;;;3.50;;
36799;SDS011;22752;51.960;5.886;2024-03-17T01:12:00;6.47;;;3.37;;
36799;SDS011;22752;51.960;5.886;2024-03-17T01:14:26;6.20;;;3.57;;
36799;SDS011;22752;51.960;5.886;2024-03-17T01:16:53;9.17;;;3.87;;
36799;SDS011;22752;51.960;5.886;2024-03-17T01:19:19;7.57;;;4.17;;
36799;SDS011;22752;51.960;5.886;2024-03-17T01:21:45;10.83;;;4.67;;
36799;SDS011;22752;51.960;5.886;2024-03-17T01:24:11;9.07;;;4.60;;
36799;SDS011;22752;51.960;5.886;2024-03-17T01:26:36;8.67;;;4.00;;
36799;SDS011;22752;51.960;5.886;2024-03-17T01:29:02;9.40;;;3.97;;
36799;SDS011;22752;51.960;5.886;2024-03-17T01:31:28;6.40;;;3.53;;
36799;SDS011;22752;51.960;5.886;2024-03-17T01:33:54;6.40;;;3.80;;
36799;SDS011;22752;51.960;5.886;2024-03-17T01:36:19;6.87;;;3.73;;
36799;SDS011;22752;51.960;5.886;2024-03-17T01:38:45;5.90;;;3.83;;
36799;SDS011;22752;51.960;5.886;2024-03-17T01:41:11;6.57;;;3.37;;
36799;SDS011;22752;51.960;5.886;2024-03-17T01:43:38;5.17;;;3.30;;
36799;SDS011;22752;51.960;5.886;2024-03-17T01:46:03;6.23;;;3.27;;
36799;SDS011;22752;51.960;5.886;2024-03-17T01:48:30;8.37;;;3.93;;
36799;SDS011;22752;51.960;5.886;2024-03-17T01:50:56;6.93;;;3.77;;
36799;SDS011;22752;51.960;5.886;2024-03-17T01:53:23;9.60;;;3.87;;
36799;SDS011;22752;51.960;5.886;2024-03-17T01:55:50;7.47;;;4.17;;
36799;SDS011;22752;51.960;5.886;2024-03-17T01:58:20;7.63;;;3.80;;
36799;SDS011;22752;51.960;5.886;2024-03-17T02:00:47;8.17;;;4.13;;
36799;SDS011;22752;51.960;5.886;2024-03-17T02:03:13;8.50;;;4.40;;
36799;SDS011;22752;51.960;5.886;2024-03-17T02:05:39;9.30;;;3.97;;
36799;SDS011;22752;51.960;5.886;2024-03-17T02:08:07;11.30;;;4.10;;
36799;SDS011;22752;51.960;5.886;2024-03-17T02:10:35;8.17;;;4.20;;
36799;SDS011;22752;51.960;5.886;2024-03-17T02:13:01;5.63;;;3.77;;
36799;SDS011;22752;51.960;5.886;2024-03-17T02:15:28;5.37;;;3.90;;
36799;SDS011;22752;51.960;5.886;2024-03-17T02:17:54;6.53;;;3.40;;
36799;SDS011;22752;51.960;5.886;2024-03-17T02:20:20;8.50;;;3.67;;
36799;SDS011;22752;51.960;5.886;2024-03-17T02:22:49;6.53;;;3.77;;
36799;SDS011;22752;51.960;5.886;2024-03-17T02:25:15;6.47;;;3.80;;
36799;SDS011;22752;51.960;5.886;2024-03-17T02:27:41;6.50;;;3.93;;
36799;SDS011;22752;51.960;5.886;2024-03-17T02:30:07;6.03;;;3.20;;
36799;SDS011;22752;51.960;5.886;2024-03-17T02:32:34;8.33;;;3.60;;
36799;SDS011;22752;51.960;5.886;2024-03-17T02:35:00;8.37;;;3.87;;
36799;SDS011;22752;51.960;5.886;2024-03-17T02:37:26;7.07;;;3.60;;
36799;SDS011;22752;51.960;5.886;2024-03-17T02:39:52;4.80;;;3.53;;
36799;SDS011;22752;51.960;5.886;2024-03-17T02:42:17;5.27;;;3.70;;
36799;SDS011;22752;51.960;5.886;2024-03-17T02:44:44;6.90;;;4.10;;
36799;SDS011;22752;51.960;5.886;2024-03-17T02:47:10;5.93;;;3.90;;
36799;SDS011;22752;51.960;5.886;2024-03-17T02:49:39;10.17;;;3.77;;
36799;SDS011;22752;51.960;5.886;2024-03-17T02:52:08;7.90;;;4.40;;
36799;SDS011;22752;51.960;5.886;2024-03-17T02:54:35;10.03;;;5.07;;
36799;SDS011;22752;51.960;5.886;2024-03-17T02:57:05;8.60;;;4.57;;
36799;SDS011;22752;51.960;5.886;2024-03-17T02:59:33;8.73;;;4.20;;
36799;SDS011;22752;51.960;5.886;2024-03-17T03:01:59;7.27;;;4.70;;
36799;SDS011;22752;51.960;5.886;2024-03-17T03:04:25;5.73;;;4.30;;
36799;SDS011;22752;51.960;5.886;2024-03-17T03:06:51;9.13;;;6.07;;
36799;SDS011;22752;51.960;5.886;2024-03-17T03:09:17;9.07;;;4.93;;
36799;SDS011;22752;51.960;5.886;2024-03-17T03:11:56;10.63;;;4.80;;
36799;SDS011;22752;51.960;5.886;2024-03-17T03:14:21;6.80;;;4.90;;
36799;SDS011;22752;51.960;5.886;2024-03-17T03:16:47;8.67;;;4.70;;
36799;SDS011;22752;51.960;5.886;2024-03-17T03:19:14;6.33;;;4.00;;
36799;SDS011;22752;51.960;5.886;2024-03-17T03:21:40;6.10;;;4.27;;
36799;SDS011;22752;51.960;5.886;2024-03-17T03:24:06;5.87;;;4.03;;
36799;SDS011;22752;51.960;5.886;2024-03-17T03:26:31;6.03;;;3.83;;
36799;SDS011;22752;51.960;5.886;2024-03-17T03:28:57;4.90;;;3.47;;
36799;SDS011;22752;51.960;5.886;2024-03-17T03:31:23;6.50;;;3.57;;
36799;SDS011;22752;51.960;5.886;2024-03-17T03:33:48;6.57;;;4.53;;
36799;SDS011;22752;51.960;5.886;2024-03-17T03:36:14;7.50;;;4.27;;
36799;SDS011;22752;51.960;5.886;2024-03-17T03:38:41;6.30;;;4.20;;
36799;SDS011;22752;51.960;5.886;2024-03-17T03:41:08;7.63;;;4.60;;
36799;SDS011;22752;51.960;5.886;2024-03-17T03:43:34;9.03;;;5.17;;
36799;SDS011;22752;51.960;5.886;2024-03-17T03:46:00;6.57;;;4.20;;
36799;SDS011;22752;51.960;5.886;2024-03-17T03:48:27;9.43;;;5.37;;
36799;SDS011;22752;51.960;5.886;2024-03-17T03:50:52;6.60;;;4.40;;
36799;SDS011;22752;51.960;5.886;2024-03-17T03:53:19;6.67;;;4.40;;
36799;SDS011;22752;51.960;5.886;2024-03-17T03:55:45;8.37;;;4.53;;
36799;SDS011;22752;51.960;5.886;2024-03-17T03:58:11;8.07;;;4.50;;
36799;SDS011;22752;51.960;5.886;2024-03-17T04:00:37;7.17;;;5.00;;
36799;SDS011;22752;51.960;5.886;2024-03-17T04:03:04;9.97;;;5.33;;
36799;SDS011;22752;51.960;5.886;2024-03-17T04:05:30;8.03;;;5.40;;
36799;SDS011;22752;51.960;5.886;2024-03-17T04:07:56;5.67;;;4.87;;
36799;SDS011;22752;51.960;5.886;2024-03-17T04:10:23;8.40;;;5.40;;
36799;SDS011;22752;51.960;5.886;2024-03-17T04:12:49;8.53;;;5.13;;
36799;SDS011;22752;51.960;5.886;2024-03-17T04:15:16;8.37;;;4.87;;
36799;SDS011;22752;51.960;5.886;2024-03-17T04:17:42;6.67;;;5.33;;
36799;SDS011;22752;51.960;5.886;2024-03-17T04:20:07;9.87;;;6.20;;
36799;SDS011;22752;51.960;5.886;2024-03-17T04:22:35;9.63;;;6.17;;
36799;SDS011;22752;51.960;5.886;2024-03-17T04:25:01;11.83;;;6.27;;
36799;SDS011;22752;51.960;5.886;2024-03-17T04:27:28;8.47;;;5.73;;
36799;SDS011;22752;51.960;5.886;2024-03-17T04:29:55;8.17;;;5.87;;
36799;SDS011;22752;51.960;5.886;2024-03-17T04:32:22;9.80;;;6.17;;
36799;SDS011;22752;51.960;5.886;2024-03-17T04:34:48;9.23;;;6.03;;
36799;SDS011;22752;51.960;5.886;2024-03-17T04:37:14;8.10;;;6.53;;
36799;SDS011;22752;51.960;5.886;2024-03-17T04:39:40;8.97;;;6.57;;
36799;SDS011;22752;51.960;5.886;2024-03-17T04:42:08;9.20;;;6.17;;
36799;SDS011;22752;51.960;5.886;2024-03-17T04:44:34;9.13;;;5.80;;
36799;SDS011;22752;51.960;5.886;2024-03-17T04:47:00;10.27;;;7.53;;
36799;SDS011;22752;51.960;5.886;2024-03-17T04:49:26;11.77;;;6.90;;
36799;SDS011;22752;51.960;5.886;2024-03-17T04:51:51;10.67;;;7.27;;
36799;SDS011;22752;51.960;5.886;2024-03-17T04:54:17;9.30;;;6.63;;
36799;SDS011;22752;51.960;5.886;2024-03-17T04:56:42;7.50;;;6.03;;
36799;SDS011;22752;51.960;5.886;2024-03-17T04:59:12;13.43;;;7.87;;
36799;SDS011;22752;51.960;5.886;2024-03-17T05:01:37;10.83;;;7.13;;
36799;SDS011;22752;51.960;5.886;2024-03-17T05:04:03;10.17;;;6.40;;
36799;SDS011;22752;51.960;5.886;2024-03-17T05:06:29;7.30;;;5.73;;
36799;SDS011;22752;51.960;5.886;2024-03-17T05:08:55;9.50;;;6.17;;
36799;SDS011;22752;51.960;5.886;2024-03-17T05:11:20;7.73;;;5.63;;
36799;SDS011;22752;51.960;5.886;2024-03-17T05:13:46;9.30;;;6.30;;
36799;SDS011;22752;51.960;5.886;2024-03-17T05:16:12;11.00;;;6.47;;
36799;SDS011;22752;51.960;5.886;2024-03-17T05:18:37;10.13;;;6.63;;
36799;SDS011;22752;51.960;5.886;2024-03-17T05:21:05;14.23;;;6.50;;
36799;SDS011;22752;51.960;5.886;2024-03-17T05:23:32;9.00;;;5.90;;
36799;SDS011;22752;51.960;5.886;2024-03-17T05:25:59;8.77;;;5.80;;
36799;SDS011;22752;51.960;5.886;2024-03-17T05:28:25;9.40;;;5.80;;
36799;SDS011;22752;51.960;5.886;2024-03-17T05:30:55;6.30;;;5.47;;
36799;SDS011;22752;51.960;5.886;2024-03-17T05:33:22;8.83;;;5.90;;
36799;SDS011;22752;51.960;5.886;2024-03-17T05:35:49;9.57;;;5.80;;
36799;SDS011;22752;51.960;5.886;2024-03-17T05:38:17;8.03;;;5.73;;
36799;SDS011;22752;51.960;5.886;2024-03-17T05:40:44;9.73;;;6.23;;
36799;SDS011;22752;51.960;5.886;2024-03-17T05:43:17;9.40;;;6.37;;
36799;SDS011;22752;51.960;5.886;2024-03-17T05:45:44;8.77;;;6.93;;
36799;SDS011;22752;51.960;5.886;2024-03-17T05:48:09;9.17;;;6.67;;
36799;SDS011;22752;51.960;5.886;2024-03-17T05:50:35;10.00;;;6.53;;
36799;SDS011;22752;51.960;5.886;2024-03-17T05:53:00;9.37;;;6.40;;
36799;SDS011;22752;51.960;5.886;2024-03-17T05:55:26;6.50;;;5.30;;
36799;SDS011;22752;51.960;5.886;2024-03-17T05:57:52;10.83;;;7.00;;
36799;SDS011;22752;51.960;5.886;2024-03-17T06:00:19;9.37;;;6.80;;
36799;SDS011;22752;51.960;5.886;2024-03-17T06:02:44;11.00;;;6.73;;
36799;SDS011;22752;51.960;5.886;2024-03-17T06:05:11;10.63;;;6.70;;
36799;SDS011;22752;51.960;5.886;2024-03-17T06:07:39;9.00;;;6.27;;
36799;SDS011;22752;51.960;5.886;2024-03-17T06:10:05;8.90;;;6.90;;
36799;SDS011;22752;51.960;5.886;2024-03-17T06:12:31;9.13;;;6.50;;
36799;SDS011;22752;51.960;5.886;2024-03-17T06:14:57;18.47;;;7.03;;
36799;SDS011;22752;51.960;5.886;2024-03-17T06:17:23;7.07;;;5.63;;
36799;SDS011;22752;51.960;5.886;2024-03-17T06:19:48;8.73;;;6.30;;
36799;SDS011;22752;51.960;5.886;2024-03-17T06:22:14;9.00;;;7.03;;
36799;SDS011;22752;51.960;5.886;2024-03-17T06:24:40;10.40;;;6.87;;
36799;SDS011;22752;51.960;5.886;2024-03-17T06:27:05;9.00;;;6.90;;
36799;SDS011;22752;51.960;5.886;2024-03-17T06:29:34;9.43;;;6.13;;
36799;SDS011;22752;51.960;5.886;2024-03-17T06:32:00;12.53;;;7.23;;
36799;SDS011;22752;51.960;5.886;2024-03-17T06:34:25;11.27;;;6.80;;
36799;SDS011;22752;51.960;5.886;2024-03-17T06:36:51;7.00;;;5.80;;
36799;SDS011;22752;51.960;5.886;2024-03-17T06:39:17;11.73;;;7.70;;
36799;SDS011;22752;51.960;5.886;2024-03-17T06:41:44;11.07;;;7.57;;
36799;SDS011;22752;51.960;5.886;2024-03-17T06:44:10;11.33;;;7.83;;
36799;SDS011;22752;51.960;5.886;2024-03-17T06:46:36;12.90;;;8.07;;
36799;SDS011;22752;51.960;5.886;2024-03-17T06:49:02;11.20;;;8.70;;
36799;SDS011;22752;51.960;5.886;2024-03-17T06:51:27;12.67;;;8.40;;
36799;SDS011;22752;51.960;5.886;2024-03-17T06:53:53;11.73;;;9.07;;
36799;SDS011;22752;51.960;5.886;2024-03-17T06:56:19;12.00;;;8.90;;
36799;SDS011;22752;51.960;5.886;2024-03-17T06:58:44;12.37;;;8.93;;
36799;SDS011;22752;51.960;5.886;2024-03-17T07:01:10;11.40;;;8.20;;
36799;SDS011;22752;51.960;5.886;2024-03-17T07:03:35;8.57;;;7.67;;
36799;SDS011;22752;51.960;5.886;2024-03-17T07:06:02;10.43;;;8.03;;
36799;SDS011;22752;51.960;5.886;2024-03-17T07:08:28;12.40;;;9.50;;
36799;SDS011;22752;51.960;5.886;2024-03-17T07:10:56;11.63;;;8.80;;
36799;SDS011;22752;51.960;5.886;2024-03-17T07:13:22;10.63;;;8.30;;
36799;SDS011;22752;51.960;5.886;2024-03-17T07:15:48;9.80;;;7.87;;
36799;SDS011;22752;51.960;5.886;2024-03-17T07:18:14;10.77;;;7.70;;
36799;SDS011;22752;51.960;5.886;2024-03-17T07:20:40;10.77;;;6.80;;
36799;SDS011;22752;51.960;5.886;2024-03-17T07:23:06;8.33;;;6.33;;
36799;SDS011;22752;51.960;5.886;2024-03-17T07:25:31;9.47;;;7.03;;
36799;SDS011;22752;51.960;5.886;2024-03-17T07:27:57;8.70;;;6.00;;
36799;SDS011;22752;51.960;5.886;2024-03-17T07:30:23;8.20;;;6.60;;
36799;SDS011;22752;51.960;5.886;2024-03-17T07:32:48;6.73;;;5.60;;
36799;SDS011;22752;51.960;5.886;2024-03-17T07:35:14;8.37;;;6.27;;
36799;SDS011;22752;51.960;5.886;2024-03-17T07:37:40;8.53;;;6.63;;
36799;SDS011;22752;51.960;5.886;2024-03-17T07:40:05;8.67;;;6.07;;
36799;SDS011;22752;51.960;5.886;2024-03-17T07:42:32;8.27;;;5.50;;
36799;SDS011;22752;51.960;5.886;2024-03-17T07:44:58;6.57;;;5.60;;
36799;SDS011;22752;51.960;5.886;2024-03-17T07:47:23;6.90;;;5.20;;
36799;SDS011;22752;51.960;5.886;2024-03-17T07:49:49;5.77;;;5.17;;
36799;SDS011;22752;51.960;5.886;2024-03-17T07:52:15;10.80;;;5.90;;
36799;SDS011;22752;51.960;5.886;2024-03-17T07:54:40;8.00;;;6.00;;
36799;SDS011;22752;51.960;5.886;2024-03-17T07:57:06;6.93;;;5.60;;
36799;SDS011;22752;51.960;5.886;2024-03-17T07:59:34;7.37;;;5.50;;
36799;SDS011;22752;51.960;5.886;2024-03-17T08:01:59;6.73;;;5.30;;
36799;SDS011;22752;51.960;5.886;2024-03-17T08:04:25;6.27;;;4.83;;
36799;SDS011;22752;51.960;5.886;2024-03-17T08:06:50;8.17;;;5.43;;
36799;SDS011;22752;51.960;5.886;2024-03-17T08:09:17;6.77;;;4.80;;
36799;SDS011;22752;51.960;5.886;2024-03-17T08:11:43;6.27;;;4.83;;
36799;SDS011;22752;51.960;5.886;2024-03-17T08:14:12;7.20;;;5.07;;
36799;SDS011;22752;51.960;5.886;2024-03-17T08:16:39;6.93;;;4.93;;
36799;SDS011;22752;51.960;5.886;2024-03-17T08:19:05;5.97;;;4.47;;
36799;SDS011;22752;51.960;5.886;2024-03-17T08:21:32;6.50;;;4.60;;
36799;SDS011;22752;51.960;5.886;2024-03-17T08:23:57;8.03;;;5.20;;
36799;SDS011;22752;51.960;5.886;2024-03-17T08:26:23;6.57;;;4.70;;
36799;SDS011;22752;51.960;5.886;2024-03-17T08:28:49;8.13;;;4.87;;
36799;SDS011;22752;51.960;5.886;2024-03-17T08:31:14;9.57;;;4.97;;
36799;SDS011;22752;51.960;5.886;2024-03-17T08:33:43;6.43;;;4.90;;
36799;SDS011;22752;51.960;5.886;2024-03-17T08:36:09;6.50;;;4.60;;
36799;SDS011;22752;51.960;5.886;2024-03-17T08:38:35;5.53;;;4.33;;
36799;SDS011;22752;51.960;5.886;2024-03-17T08:41:05;6.77;;;4.87;;
36799;SDS011;22752;51.960;5.886;2024-03-17T08:43:32;5.00;;;4.10;;
36799;SDS011;22752;51.960;5.886;2024-03-17T08:45:59;7.97;;;5.33;;
36799;SDS011;22752;51.960;5.886;2024-03-17T08:48:30;5.63;;;3.93;;
36799;SDS011;22752;51.960;5.886;2024-03-17T08:50:57;5.67;;;4.53;;
36799;SDS011;22752;51.960;5.886;2024-03-17T08:53:24;6.33;;;4.60;;
36799;SDS011;22752;51.960;5.886;2024-03-17T08:55:50;4.87;;;4.27;;
36799;SDS011;22752;51.960;5.886;2024-03-17T08:58:16;8.83;;;4.33;;
36799;SDS011;22752;51.960;5.886;2024-03-17T09:00:42;4.87;;;3.67;;
36799;SDS011;22752;51.960;5.886;2024-03-17T09:03:09;4.43;;;3.73;;
36799;SDS011;22752;51.960;5.886;2024-03-17T09:05:38;4.63;;;3.47;;
36799;SDS011;22752;51.960;5.886;2024-03-17T09:08:05;4.10;;;3.70;;
36799;SDS011;22752;51.960;5.886;2024-03-17T09:10:40;4.47;;;3.50;;
36799;SDS011;22752;51.960;5.886;2024-03-17T09:13:06;6.37;;;4.07;;
36799;SDS011;22752;51.960;5.886;2024-03-17T09:15:38;4.43;;;3.40;;
36799;SDS011;22752;51.960;5.886;2024-03-17T09:18:03;3.50;;;3.20;;
36799;SDS011;22752;51.960;5.886;2024-03-17T09:20:29;3.70;;;3.33;;
36799;SDS011;22752;51.960;5.886;2024-03-17T09:22:56;5.97;;;3.60;;
36799;SDS011;22752;51.960;5.886;2024-03-17T09:25:21;5.33;;;3.60;;
36799;SDS011;22752;51.960;5.886;2024-03-17T09:27:48;5.70;;;3.73;;
36799;SDS011;22752;51.960;5.886;2024-03-17T09:30:14;6.43;;;4.10;;
36799;SDS011;22752;51.960;5.886;2024-03-17T09:32:40;4.40;;;3.93;;
36799;SDS011;22752;51.960;5.886;2024-03-17T09:35:06;4.70;;;3.60;;
36799;SDS011;22752;51.960;5.886;2024-03-17T09:37:32;6.60;;;3.87;;
36799;SDS011;22752;51.960;5.886;2024-03-17T09:39:58;5.03;;;4.47;;
36799;SDS011;22752;51.960;5.886;2024-03-17T09:42:27;7.53;;;4.23;;
36799;SDS011;22752;51.960;5.886;2024-03-17T09:44:53;6.63;;;4.60;;
36799;SDS011;22752;51.960;5.886;2024-03-17T09:47:23;5.23;;;3.87;;
36799;SDS011;22752;51.960;5.886;2024-03-17T09:49:49;5.17;;;4.03;;
36799;SDS011;22752;51.960;5.886;2024-03-17T09:52:22;5.13;;;3.67;;
36799;SDS011;22752;51.960;5.886;2024-03-17T09:54:53;3.20;;;2.90;;
36799;SDS011;22752;51.960;5.886;2024-03-17T09:57:36;4.10;;;2.83;;
36799;SDS011;22752;51.960;5.886;2024-03-17T10:00:12;6.07;;;4.00;;
36799;SDS011;22752;51.960;5.886;2024-03-17T10:02:47;7.87;;;4.07;;
36799;SDS011;22752;51.960;5.886;2024-03-17T10:05:17;5.03;;;3.63;;
36799;SDS011;22752;51.960;5.886;2024-03-17T10:07:48;7.07;;;3.50;;
36799;SDS011;22752;51.960;5.886;2024-03-17T10:10:15;8.17;;;3.87;;
36799;SDS011;22752;51.960;5.886;2024-03-17T10:12:41;4.17;;;3.73;;
36799;SDS011;22752;51.960;5.886;2024-03-17T10:15:08;5.63;;;4.03;;
36799;SDS011;22752;51.960;5.886;2024-03-17T10:17:36;5.87;;;4.17;;
36799;SDS011;22752;51.960;5.886;2024-03-17T10:20:12;6.37;;;4.20;;
36799;SDS011;22752;51.960;5.886;2024-03-17T10:25:28;6.25;;;4.60;;
36799;SDS011;22752;51.960;5.886;2024-03-17T10:27:56;6.53;;;4.63;;
36799;SDS011;22752;51.960;5.886;2024-03-17T10:30:22;8.80;;;5.55;;
36799;SDS011;22752;51.960;5.886;2024-03-17T10:32:57;5.78;;;4.78;;
36799;SDS011;22752;51.960;5.886;2024-03-17T10:35:27;8.38;;;5.45;;
36799;SDS011;22752;51.960;5.886;2024-03-17T10:40:26;9.02;;;5.65;;
36799;SDS011;22752;51.960;5.886;2024-03-17T10:42:54;7.05;;;5.38;;
36799;SDS011;22752;51.960;5.886;2024-03-17T10:45:21;7.78;;;5.22;;
36799;SDS011;22752;51.960;5.886;2024-03-17T10:47:48;6.55;;;4.00;;
36799;SDS011;22752;51.960;5.886;2024-03-17T10:50:21;5.75;;;4.45;;
36799;SDS011;22752;51.960;5.886;2024-03-17T10:52:52;6.72;;;5.22;;
36799;SDS011;22752;51.960;5.886;2024-03-17T10:55:24;5.50;;;4.63;;
36799;SDS011;22752;51.960;5.886;2024-03-17T10:57:54;8.30;;;4.80;;
36799;SDS011;22752;51.960;5.886;2024-03-17T11:00:23;5.90;;;4.25;;
36799;SDS011;22752;51.960;5.886;2024-03-17T11:02:52;5.38;;;4.28;;
36799;SDS011;22752;51.960;5.886;2024-03-17T11:07:46;6.95;;;4.82;;
36799;SDS011;22752;51.960;5.886;2024-03-17T11:12:58;6.88;;;5.30;;
36799;SDS011;22752;51.960;5.886;2024-03-17T11:20:36;6.88;;;4.60;;
36799;SDS011;22752;51.960;5.886;2024-03-17T11:23:05;5.97;;;4.55;;
36799;SDS011;22752;51.960;5.886;2024-03-17T11:28:00;8.13;;;4.72;;
36799;SDS011;22752;51.960;5.886;2024-03-17T11:49:24;7.07;;;4.88;;
36799;SDS011;22752;51.960;5.886;2024-03-17T11:51:54;7.32;;;4.57;;
36799;SDS011;22752;51.960;5.886;2024-03-17T11:54:27;6.85;;;5.55;;
36799;SDS011;22752;51.960;5.886;2024-03-17T11:56:55;6.32;;;4.40;;
36799;SDS011;22752;51.960;5.886;2024-03-17T11:59:26;5.35;;;4.72;;
36799;SDS011;22752;51.960;5.886;2024-03-17T12:01:52;6.53;;;4.88;;
36799;SDS011;22752;51.960;5.886;2024-03-17T12:04:18;5.07;;;4.13;;
36799;SDS011;22752;51.960;5.886;2024-03-17T12:06:49;7.57;;;4.93;;
36799;SDS011;22752;51.960;5.886;2024-03-17T12:09:17;7.53;;;5.53;;
36799;SDS011;22752;51.960;5.886;2024-03-17T12:12:05;8.43;;;5.20;;
36799;SDS011;22752;51.960;5.886;2024-03-17T12:14:33;8.63;;;5.22;;
36799;SDS011;22752;51.960;5.886;2024-03-17T12:17:05;6.45;;;4.60;;
36799;SDS011;22752;51.960;5.886;2024-03-17T12:19:35;8.20;;;5.30;;
36799;SDS011;22752;51.960;5.886;2024-03-17T12:22:03;6.60;;;4.90;;
36799;SDS011;22752;51.960;5.886;2024-03-17T12:24:36;8.73;;;6.20;;
36799;SDS011;22752;51.960;5.886;2024-03-17T12:27:05;6.60;;;5.57;;
36799;SDS011;22752;51.960;5.886;2024-03-17T12:32:04;7.20;;;5.40;;
36799;SDS011;22752;51.960;5.886;2024-03-17T12:34:44;6.03;;;4.97;;
36799;SDS011;22752;51.960;5.886;2024-03-17T12:37:17;8.70;;;5.07;;
36799;SDS011;22752;51.960;5.886;2024-03-17T12:39:44;8.55;;;5.45;;
36799;SDS011;22752;51.960;5.886;2024-03-17T12:42:12;6.35;;;5.30;;
36799;SDS011;22752;51.960;5.886;2024-03-17T12:44:56;7.25;;;5.30;;
36799;SDS011;22752;51.960;5.886;2024-03-17T12:47:23;8.27;;;5.63;;
36799;SDS011;22752;51.960;5.886;2024-03-17T12:49:52;7.55;;;5.82;;
36799;SDS011;22752;51.960;5.886;2024-03-17T12:52:26;7.13;;;5.82;;
36799;SDS011;22752;51.960;5.886;2024-03-17T12:54:56;6.45;;;5.40;;
36799;SDS011;22752;51.960;5.886;2024-03-17T12:57:49;5.82;;;4.68;;
36799;SDS011;22752;51.960;5.886;2024-03-17T13:00:34;7.72;;;5.20;;
36799;SDS011;22752;51.960;5.886;2024-03-17T13:03:01;7.03;;;4.93;;
36799;SDS011;22752;51.960;5.886;2024-03-17T13:05:27;8.70;;;5.65;;
36799;SDS011;22752;51.960;5.886;2024-03-17T13:07:57;7.65;;;5.55;;
36799;SDS011;22752;51.960;5.886;2024-03-17T13:10:23;6.28;;;4.95;;
36799;SDS011;22752;51.960;5.886;2024-03-17T13:13:03;8.80;;;5.57;;
36799;SDS011;22752;51.960;5.886;2024-03-17T13:15:31;7.63;;;5.53;;
36799;SDS011;22752;51.960;5.886;2024-03-17T13:17:57;6.82;;;5.35;;
36799;SDS011;22752;51.960;5.886;2024-03-17T13:20:23;10.73;;;6.38;;
36799;SDS011;22752;51.960;5.886;2024-03-17T13:22:49;9.88;;;6.30;;
36799;SDS011;22752;51.960;5.886;2024-03-17T13:25:16;7.75;;;5.80;;
36799;SDS011;22752;51.960;5.886;2024-03-17T13:27:44;8.32;;;5.78;;
36799;SDS011;22752;51.960;5.886;2024-03-17T13:30:11;10.93;;;6.22;;
36799;SDS011;22752;51.960;5.886;2024-03-17T13:32:38;8.63;;;5.22;;
36799;SDS011;22752;51.960;5.886;2024-03-17T13:35:05;8.82;;;5.03;;
36799;SDS011;22752;51.960;5.886;2024-03-17T13:37:33;8.23;;;5.20;;
36799;SDS011;22752;51.960;5.886;2024-03-17T13:40:00;8.02;;;4.43;;
36799;SDS011;22752;51.960;5.886;2024-03-17T13:42:29;6.72;;;5.10;;
36799;SDS011;22752;51.960;5.886;2024-03-17T13:44:55;9.77;;;5.75;;
36799;SDS011;22752;51.960;5.886;2024-03-17T13:47:21;9.13;;;6.53;;
36799;SDS011;22752;51.960;5.886;2024-03-17T13:49:47;7.10;;;5.78;;
36799;SDS011;22752;51.960;5.886;2024-03-17T13:52:13;12.95;;;6.22;;
36799;SDS011;22752;51.960;5.886;2024-03-17T13:54:38;9.63;;;5.97;;
36799;SDS011;22752;51.960;5.886;2024-03-17T13:57:04;7.40;;;5.07;;
36799;SDS011;22752;51.960;5.886;2024-03-17T13:59:30;8.63;;;4.57;;
36799;SDS011;22752;51.960;5.886;2024-03-17T14:02:01;8.25;;;4.43;;
36799;SDS011;22752;51.960;5.886;2024-03-17T14:04:27;5.43;;;4.15;;
36799;SDS011;22752;51.960;5.886;2024-03-17T14:06:52;6.03;;;4.30;;
36799;SDS011;22752;51.960;5.886;2024-03-17T14:09:18;6.72;;;3.92;;
36799;SDS011;22752;51.960;5.886;2024-03-17T14:11:44;7.25;;;4.78;;
36799;SDS011;22752;51.960;5.886;2024-03-17T14:14:10;6.53;;;4.55;;
36799;SDS011;22752;51.960;5.886;2024-03-17T14:16:37;5.43;;;3.90;;
36799;SDS011;22752;51.960;5.886;2024-03-17T14:19:04;6.90;;;4.18;;
36799;SDS011;22752;51.960;5.886;2024-03-17T14:21:29;6.72;;;4.75;;
36799;SDS011;22752;51.960;5.886;2024-03-17T14:23:55;6.32;;;4.78;;
36799;SDS011;22752;51.960;5.886;2024-03-17T14:26:21;6.38;;;4.78;;
36799;SDS011;22752;51.960;5.886;2024-03-17T14:28:48;8.50;;;5.43;;
36799;SDS011;22752;51.960;5.886;2024-03-17T14:31:16;6.25;;;4.78;;
36799;SDS011;22752;51.960;5.886;2024-03-17T14:33:42;5.35;;;4.38;;
36799;SDS011;22752;51.960;5.886;2024-03-17T14:36:08;6.82;;;4.90;;
36799;SDS011;22752;51.960;5.886;2024-03-17T14:38:34;7.13;;;4.55;;
36799;SDS011;22752;51.960;5.886;2024-03-17T14:41:00;11.98;;;5.10;;
36799;SDS011;22752;51.960;5.886;2024-03-17T14:43:26;10.27;;;4.78;;
36799;SDS011;22752;51.960;5.886;2024-03-17T14:45:54;8.45;;;4.90;;
36799;SDS011;22752;51.960;5.886;2024-03-17T14:48:20;6.10;;;4.63;;
36799;SDS011;22752;51.960;5.886;2024-03-17T14:50:45;5.80;;;4.18;;
36799;SDS011;22752;51.960;5.886;2024-03-17T14:53:11;6.82;;;4.30;;
36799;SDS011;22752;51.960;5.886;2024-03-17T14:55:37;6.10;;;4.05;;
36799;SDS011;22752;51.960;5.886;2024-03-17T14:58:02;4.88;;;4.05;;
36799;SDS011;22752;51.960;5.886;2024-03-17T15:00:28;5.97;;;3.70;;
36799;SDS011;22752;51.960;5.886;2024-03-17T15:02:56;5.53;;;3.83;;
36799;SDS011;22752;51.960;5.886;2024-03-17T15:05:22;6.03;;;4.00;;
36799;SDS011;22752;51.960;5.886;2024-03-17T15:07:50;9.27;;;5.30;;
36799;SDS011;22752;51.960;5.886;2024-03-17T15:10:16;5.68;;;3.95;;
36799;SDS011;22752;51.960;5.886;2024-03-17T15:12:48;9.20;;;4.50;;
36799;SDS011;22752;51.960;5.886;2024-03-17T15:15:15;6.82;;;4.40;;
36799;SDS011;22752;51.960;5.886;2024-03-17T15:17:42;7.13;;;4.38;;
36799;SDS011;22752;51.960;5.886;2024-03-17T15:20:09;7.07;;;4.32;;
36799;SDS011;22752;51.960;5.886;2024-03-17T15:22:43;6.20;;;4.45;;
36799;SDS011;22752;51.960;5.886;2024-03-17T15:25:14;7.38;;;4.63;;